createdAt,value
2023-02-02T00:01:21.202Z,12.55
2023-02-02T00:03:50.893Z,11.50
2023-02-02T00:06:19.394Z,11.27
2023-02-02T00:08:47.927Z,10.52
2023-02-02T00:11:17.673Z,11.07
2023-02-02T00:13:45.983Z,10.25
2023-02-02T00:16:37.242Z,11.50
2023-02-02T00:19:07.159Z,9.23
2023-02-02T00:21:35.641Z,10.60
2023-02-02T00:24:04.039Z,10.52
2023-02-02T00:26:33.495Z,10.73
2023-02-02T00:29:01.717Z,13.18
2023-02-02T00:31:29.958Z,10.57
2023-02-02T00:33:57.996Z,10.15
2023-02-02T00:36:26.323Z,11.27
2023-02-02T00:38:54.440Z,9.77
2023-02-02T00:41:22.518Z,11.75
2023-02-02T00:44:05.744Z,12.63
2023-02-02T00:46:34.111Z,13.68
2023-02-02T00:49:02.205Z,10.05
2023-02-02T00:51:30.391Z,11.88
2023-02-02T00:53:58.609Z,13.30
2023-02-02T00:56:27.004Z,10.95
2023-02-02T00:58:56.540Z,12.45
2023-02-02T01:01:25.006Z,9.70
2023-02-02T01:03:54.618Z,11.82
2023-02-02T01:06:22.842Z,11.77
2023-02-02T01:08:50.920Z,12.40
2023-02-02T01:11:19.175Z,12.05
2023-02-02T01:13:47.246Z,11.68
2023-02-02T01:16:17.113Z,10.70
2023-02-02T01:18:45.234Z,11.27
2023-02-02T01:21:14.164Z,10.23
2023-02-02T01:23:42.353Z,11.45
2023-02-02T01:26:12.443Z,10.02
2023-02-02T01:28:41.333Z,7.82
2023-02-02T01:31:11.540Z,12.00
2023-02-02T01:33:41.627Z,10.02
2023-02-02T01:36:13.968Z,15.13
2023-02-02T01:38:42.529Z,12.70
2023-02-02T01:41:14.671Z,11.95
2023-02-02T01:43:55.115Z,12.68
2023-02-02T01:46:25.290Z,11.07
2023-02-02T01:49:01.281Z,10.40
2023-02-02T01:51:35.915Z,14.63
2023-02-02T01:54:07.683Z,9.30
2023-02-02T01:56:40.168Z,9.85
2023-02-02T01:59:09.002Z,9.50
2023-02-02T02:01:40.091Z,13.07
2023-02-02T02:04:09.790Z,10.40
2023-02-02T02:06:37.907Z,11.50
2023-02-02T02:09:07.774Z,11.30
2023-02-02T02:11:37.134Z,13.38
2023-02-02T02:14:24.831Z,13.43
2023-02-02T02:17:13.112Z,12.50
2023-02-02T02:20:31.116Z,9.48
2023-02-02T02:23:44.524Z,11.45
2023-02-02T02:26:43.255Z,9.55
2023-02-02T02:29:35.918Z,11.88
2023-02-02T02:32:19.979Z,12.05
2023-02-02T02:34:56.361Z,13.77
2023-02-02T02:37:34.040Z,8.77
2023-02-02T02:40:09.382Z,11.65
2023-02-02T02:42:42.304Z,11.00
2023-02-02T02:45:13.020Z,10.55
2023-02-02T02:47:43.542Z,9.25
2023-02-02T02:50:12.829Z,8.75
2023-02-02T02:52:42.128Z,9.02
2023-02-02T02:55:13.152Z,9.95
2023-02-02T02:57:51.660Z,10.23
2023-02-02T03:00:37.319Z,11.60
2023-02-02T03:03:17.851Z,10.48
2023-02-02T03:05:54.087Z,10.02
2023-02-02T03:08:29.589Z,11.20
2023-02-02T03:11:00.065Z,9.55
2023-02-02T03:13:29.355Z,8.02
2023-02-02T03:15:58.062Z,8.60
2023-02-02T03:18:30.652Z,9.60
2023-02-02T03:20:58.772Z,9.50
2023-02-02T03:23:26.906Z,10.43
2023-02-02T03:25:55.495Z,9.60
2023-02-02T03:28:25.497Z,8.52
2023-02-02T03:30:54.829Z,9.73
2023-02-02T03:33:23.377Z,10.20
2023-02-02T03:35:52.918Z,8.13
2023-02-02T03:38:21.052Z,8.82
2023-02-02T03:40:49.108Z,9.00
2023-02-02T03:43:21.718Z,9.45
2023-02-02T03:45:49.923Z,9.50
2023-02-02T03:48:18.028Z,10.48
2023-02-02T03:50:46.148Z,12.55
2023-02-02T03:53:15.669Z,11.13
2023-02-02T03:55:43.733Z,11.93
2023-02-02T03:58:11.913Z,13.45
2023-02-02T04:00:40.007Z,11.68
2023-02-02T04:03:08.158Z,10.65
2023-02-02T04:05:36.214Z,8.88
2023-02-02T04:08:04.406Z,9.98
2023-02-02T04:10:33.903Z,9.82
2023-02-02T04:13:02.032Z,10.02
2023-02-02T04:15:30.119Z,7.05
2023-02-02T04:17:58.529Z,5.53
2023-02-02T04:20:26.655Z,6.65
2023-02-02T04:22:55.948Z,8.52
2023-02-02T04:25:24.514Z,8.18
2023-02-02T04:27:54.365Z,7.93
2023-02-02T04:30:23.455Z,7.97
2023-02-02T04:32:53.319Z,6.35
2023-02-02T04:35:21.563Z,6.00
2023-02-02T04:37:49.726Z,5.80
2023-02-02T04:40:18.019Z,6.93
2023-02-02T04:42:46.463Z,8.15
2023-02-02T04:45:16.153Z,7.72
2023-02-02T04:47:44.247Z,12.70
2023-02-02T04:50:13.349Z,5.90
2023-02-02T04:52:41.504Z,10.93
2023-02-02T04:55:10.460Z,9.40
2023-02-02T04:57:38.666Z,8.77
2023-02-02T05:00:08.102Z,7.63
2023-02-02T05:02:38.713Z,9.98
2023-02-02T05:05:09.562Z,9.07
2023-02-02T05:07:37.647Z,8.65
2023-02-02T05:10:06.242Z,9.23
2023-02-02T05:12:34.307Z,10.50
2023-02-02T05:15:03.557Z,10.30
2023-02-02T05:17:31.777Z,10.10
2023-02-02T05:20:03.577Z,9.25
2023-02-02T05:22:31.694Z,10.52
2023-02-02T05:24:59.727Z,7.55
2023-02-02T05:27:27.813Z,9.43
2023-02-02T05:29:55.949Z,3.13
2023-02-02T05:32:24.172Z,4.43
2023-02-02T05:34:52.397Z,4.35
2023-02-02T05:37:21.846Z,2.75
2023-02-02T05:39:52.226Z,3.85
2023-02-02T05:42:20.330Z,11.55
2023-02-02T05:44:48.393Z,5.15
2023-02-02T05:47:16.532Z,10.60
2023-02-02T05:49:44.637Z,4.18
2023-02-02T05:52:18.145Z,4.78
2023-02-02T05:54:47.688Z,3.83
2023-02-02T05:57:16.289Z,3.92
2023-02-02T05:59:44.396Z,3.42
2023-02-02T06:02:12.427Z,3.10
2023-02-02T06:04:40.769Z,3.60
2023-02-02T06:07:08.839Z,7.85
2023-02-02T06:09:36.901Z,5.55
2023-02-02T06:12:07.242Z,2.80
2023-02-02T06:14:35.430Z,4.25
2023-02-02T06:17:03.556Z,4.00
2023-02-02T06:19:31.713Z,4.53
2023-02-02T06:21:59.872Z,7.63
2023-02-02T06:24:28.269Z,6.78
2023-02-02T06:26:56.494Z,6.38
2023-02-02T06:29:26.111Z,5.72
2023-02-02T06:31:54.367Z,5.35
2023-02-02T06:34:22.731Z,5.35
2023-02-02T06:36:50.839Z,8.45
2023-02-02T06:39:19.177Z,6.22
2023-02-02T06:41:48.360Z,5.35
2023-02-02T06:44:16.590Z,5.53
2023-02-02T06:46:46.148Z,12.35
2023-02-02T06:49:15.709Z,5.70
2023-02-02T06:51:43.760Z,6.10
2023-02-02T06:54:11.876Z,4.60
2023-02-02T06:56:40.041Z,5.03
2023-02-02T06:59:08.156Z,4.18
2023-02-02T07:01:36.310Z,4.55
2023-02-02T07:04:05.947Z,7.50
2023-02-02T07:06:34.066Z,5.70
2023-02-02T07:09:03.471Z,4.97
2023-02-02T07:11:34.693Z,6.47
2023-02-02T07:14:04.748Z,5.63
2023-02-02T07:16:33.486Z,5.03
2023-02-02T07:19:01.605Z,4.32
2023-02-02T07:21:35.785Z,4.53
2023-02-02T07:24:04.752Z,7.05
2023-02-02T07:26:33.052Z,5.75
2023-02-02T07:29:01.182Z,5.13
2023-02-02T07:31:29.434Z,4.70
2023-02-02T07:33:57.787Z,5.75
2023-02-02T07:36:26.623Z,6.50
2023-02-02T07:38:58.536Z,5.03
2023-02-02T07:41:27.962Z,6.53
2023-02-02T07:43:56.082Z,5.20
2023-02-02T07:46:24.316Z,4.78
2023-02-02T07:48:54.843Z,10.00
2023-02-02T07:51:23.137Z,9.13
2023-02-02T07:53:53.204Z,5.55
2023-02-02T07:56:24.791Z,5.60
2023-02-02T07:58:53.847Z,6.30
2023-02-02T08:01:23.392Z,5.95
2023-02-02T08:03:53.142Z,8.32
2023-02-02T08:06:24.110Z,5.55
2023-02-02T08:08:52.822Z,6.75
2023-02-02T08:11:24.387Z,7.13
2023-02-02T08:13:53.877Z,6.93
2023-02-02T08:16:22.451Z,7.40
2023-02-02T08:18:51.150Z,8.23
2023-02-02T08:21:20.271Z,8.55
2023-02-02T08:23:48.898Z,8.93
2023-02-02T08:26:19.047Z,8.32
2023-02-02T08:28:50.223Z,8.85
2023-02-02T08:31:21.517Z,8.20
2023-02-02T08:33:50.112Z,7.60
2023-02-02T08:36:20.614Z,7.68
2023-02-02T08:38:48.734Z,8.15
2023-02-02T08:41:18.919Z,7.97
2023-02-02T08:43:48.579Z,7.22
2023-02-02T08:46:18.558Z,6.00
2023-02-02T08:48:47.435Z,7.72
2023-02-02T08:51:17.442Z,8.27
2023-02-02T08:53:46.347Z,20.10
2023-02-02T08:56:16.774Z,10.50
2023-02-02T08:58:48.721Z,8.23
2023-02-02T09:01:18.738Z,8.02
2023-02-02T09:03:47.320Z,10.60
2023-02-02T09:06:17.057Z,9.88
2023-02-02T09:08:45.955Z,15.23
2023-02-02T09:11:15.872Z,7.45
2023-02-02T09:13:45.975Z,9.70
2023-02-02T09:16:17.517Z,12.02
2023-02-02T09:18:46.937Z,9.75
2023-02-02T09:21:17.258Z,8.93
2023-02-02T09:23:46.713Z,10.10
2023-02-02T09:26:17.831Z,10.52
2023-02-02T09:28:47.365Z,9.13
2023-02-02T09:31:17.361Z,9.82
2023-02-02T09:33:45.790Z,10.15
2023-02-02T09:36:15.605Z,10.07
2023-02-02T09:38:44.689Z,12.23
2023-02-02T09:41:32.895Z,10.25
2023-02-02T09:44:12.276Z,12.23
2023-02-02T09:46:51.700Z,19.33
2023-02-02T09:49:27.198Z,9.75
2023-02-02T09:52:01.118Z,9.20
2023-02-02T09:54:32.632Z,15.20
2023-02-02T09:57:04.518Z,11.48
2023-02-02T09:59:36.892Z,11.88
2023-02-02T10:02:15.018Z,12.23
2023-02-02T10:04:49.139Z,10.02
2023-02-02T10:07:21.208Z,9.33
2023-02-02T10:09:52.989Z,8.55
2023-02-02T10:12:31.348Z,12.00
2023-02-02T10:15:12.658Z,8.82
2023-02-02T10:17:48.449Z,11.20
2023-02-02T10:20:33.045Z,8.88
2023-02-02T10:23:10.115Z,7.55
2023-02-02T10:25:40.925Z,8.63
2023-02-02T10:28:25.984Z,7.90
2023-02-02T10:31:00.236Z,7.30
2023-02-02T10:33:38.499Z,9.23
2023-02-02T10:36:16.748Z,6.15
2023-02-02T10:38:54.105Z,7.32
2023-02-02T10:41:30.328Z,10.80
2023-02-02T10:44:18.586Z,6.38
2023-02-02T10:46:52.130Z,7.63
2023-02-02T10:49:34.496Z,7.35
2023-02-02T10:52:14.791Z,8.07
2023-02-02T10:55:04.149Z,7.07
2023-02-02T10:57:47.352Z,7.25
2023-02-02T11:00:23.273Z,9.13
2023-02-02T11:02:53.012Z,6.82
2023-02-02T11:05:42.624Z,9.52
2023-02-02T11:08:19.420Z,5.53
2023-02-02T11:10:49.527Z,5.55
2023-02-02T11:13:25.284Z,6.03
2023-02-02T11:16:20.430Z,7.22
2023-02-02T11:18:48.673Z,5.88
2023-02-02T11:21:23.777Z,7.35
2023-02-02T11:23:57.874Z,7.03
2023-02-02T11:26:27.271Z,6.27
2023-02-02T11:28:59.269Z,6.93
2023-02-02T11:31:36.081Z,8.20
2023-02-02T11:34:20.380Z,5.65
2023-02-02T11:37:14.232Z,6.38
2023-02-02T11:39:42.778Z,7.28
2023-02-02T11:42:16.187Z,8.68
2023-02-02T11:44:48.336Z,5.68
2023-02-02T11:47:22.807Z,5.80
2023-02-02T11:49:53.413Z,7.55
2023-02-02T11:52:25.658Z,6.80
2023-02-02T11:54:56.847Z,8.68
2023-02-02T11:57:28.418Z,5.18
2023-02-02T12:00:16.950Z,5.10
2023-02-02T12:02:49.505Z,5.07
2023-02-02T12:05:36.496Z,6.50
2023-02-02T12:08:09.208Z,4.38
2023-02-02T12:10:46.053Z,5.85
2023-02-02T12:13:25.532Z,15.93
2023-02-02T12:16:08.830Z,5.30
2023-02-02T12:18:47.067Z,7.60
2023-02-02T12:21:21.724Z,7.57
2023-02-02T12:24:06.683Z,5.18
2023-02-02T12:26:37.663Z,9.93
2023-02-02T12:29:19.972Z,5.30
2023-02-02T12:31:58.774Z,7.00
2023-02-02T12:34:37.273Z,6.80
2023-02-02T12:37:13.692Z,3.95
2023-02-02T12:39:57.436Z,4.22
2023-02-02T12:42:38.065Z,6.25
2023-02-02T12:45:26.737Z,3.00
2023-02-02T12:48:06.311Z,5.10
2023-02-02T12:50:43.133Z,5.25
2023-02-02T12:53:28.538Z,5.65
2023-02-02T12:58:39.688Z,6.72
2023-02-02T13:01:23.983Z,5.05
2023-02-02T13:04:08.646Z,6.30
2023-02-02T13:07:03.054Z,5.10
2023-02-02T13:09:36.589Z,4.82
2023-02-02T13:12:09.969Z,5.63
2023-02-02T13:14:43.004Z,4.45
2023-02-02T13:17:16.438Z,4.28
2023-02-02T13:19:52.854Z,5.45
2023-02-02T13:22:26.688Z,4.18
2023-02-02T13:25:01.332Z,3.55
2023-02-02T13:27:32.630Z,3.75
2023-02-02T13:30:07.098Z,4.70
2023-02-02T13:32:39.762Z,5.45
2023-02-02T13:35:17.891Z,5.50
2023-02-02T13:37:52.194Z,6.93
2023-02-02T13:40:28.694Z,6.15
2023-02-02T13:43:05.275Z,3.83
2023-02-02T13:45:53.844Z,4.32
2023-02-02T13:48:31.923Z,4.22
2023-02-02T13:51:17.560Z,4.28
2023-02-02T13:54:05.396Z,4.03
2023-02-02T13:56:41.317Z,6.07
2023-02-02T13:59:27.017Z,4.32
2023-02-02T14:01:58.670Z,8.10
2023-02-02T14:04:31.400Z,9.10
2023-02-02T14:07:06.710Z,6.82
2023-02-02T14:09:39.348Z,5.35
2023-02-02T14:12:10.764Z,9.52
2023-02-02T14:14:47.629Z,4.20
2023-02-02T14:17:49.195Z,5.53
2023-02-02T14:20:42.829Z,8.40
2023-02-02T14:23:51.108Z,9.10
2023-02-02T14:26:40.562Z,7.22
2023-02-02T14:29:39.638Z,7.45
2023-02-02T14:32:42.179Z,7.25
2023-02-02T14:35:47.366Z,5.28
2023-02-02T14:38:24.865Z,7.22
2023-02-02T14:41:00.411Z,6.55
2023-02-02T14:43:45.274Z,6.97
2023-02-02T14:46:25.457Z,10.95
2023-02-02T14:49:16.888Z,9.10
2023-02-02T14:51:55.356Z,7.93
2023-02-02T14:54:33.046Z,6.82
2023-02-02T14:57:06.100Z,9.48
2023-02-02T14:59:37.955Z,6.32
2023-02-02T15:02:18.100Z,10.30
2023-02-02T15:04:48.341Z,9.48
2023-02-02T15:07:55.234Z,7.93
2023-02-02T15:10:59.429Z,8.07
2023-02-02T15:13:31.270Z,8.00
2023-02-02T15:16:11.620Z,10.00
2023-02-02T15:18:45.439Z,9.90
2023-02-02T15:21:22.096Z,12.02
2023-02-02T15:23:50.767Z,10.38
2023-02-02T15:26:24.843Z,10.52
2023-02-02T15:28:57.080Z,11.10
2023-02-02T15:31:31.835Z,11.68
2023-02-02T15:34:02.373Z,9.73
2023-02-02T15:36:34.741Z,11.10
2023-02-02T15:39:10.103Z,7.78
2023-02-02T15:41:43.667Z,12.23
2023-02-02T15:44:20.242Z,9.75
2023-02-02T15:46:50.127Z,13.02
2023-02-02T15:49:35.159Z,10.65
2023-02-02T15:52:14.844Z,11.68
2023-02-02T15:54:53.331Z,21.73
2023-02-02T15:57:29.834Z,20.88
2023-02-02T15:59:58.403Z,28.23
2023-02-02T16:02:35.390Z,23.77
2023-02-02T16:05:03.529Z,27.15
2023-02-02T16:07:34.947Z,19.25
2023-02-02T16:10:05.458Z,23.98
2023-02-02T16:12:35.495Z,18.98
2023-02-02T16:15:03.776Z,16.95
2023-02-02T16:17:35.637Z,16.40
2023-02-02T16:20:08.944Z,13.43
2023-02-02T16:22:41.892Z,16.65
2023-02-02T16:25:14.594Z,8.73
2023-02-02T16:27:46.313Z,7.72
2023-02-02T16:30:26.811Z,9.23
2023-02-02T16:32:54.993Z,9.90
2023-02-02T16:35:33.195Z,8.90
2023-02-02T16:38:16.678Z,10.43
2023-02-02T16:40:45.142Z,9.52
2023-02-02T16:43:19.784Z,11.85
2023-02-02T16:45:50.534Z,13.07
2023-02-02T16:48:34.377Z,8.90
2023-02-02T16:51:21.950Z,7.85
2023-02-02T16:54:00.022Z,8.43
2023-02-02T16:56:31.668Z,11.45
2023-02-02T16:59:03.121Z,8.85
2023-02-02T17:01:36.760Z,8.93
2023-02-02T17:04:07.507Z,11.02
2023-02-02T17:06:50.411Z,6.47
2023-02-02T17:09:36.497Z,7.32
2023-02-02T17:12:14.287Z,10.15
2023-02-02T17:14:53.291Z,11.15
2023-02-02T17:17:21.800Z,10.73
2023-02-02T17:19:49.953Z,9.23
2023-02-02T17:22:19.882Z,6.65
2023-02-02T17:24:52.085Z,5.05
2023-02-02T17:27:27.531Z,10.93
2023-02-02T17:29:56.411Z,10.90
2023-02-02T17:32:25.028Z,8.38
2023-02-02T17:34:53.174Z,8.73
2023-02-02T17:37:21.283Z,11.55
2023-02-02T17:39:51.592Z,10.45
2023-02-02T17:42:26.263Z,10.27
2023-02-02T17:44:54.643Z,11.73
2023-02-02T17:47:22.716Z,23.13
2023-02-02T17:49:50.741Z,19.67
2023-02-02T17:52:19.786Z,15.07
2023-02-02T17:54:48.252Z,9.60
2023-02-02T17:57:17.785Z,10.57
2023-02-02T17:59:45.937Z,9.85
2023-02-02T18:02:17.410Z,6.30
2023-02-02T18:04:47.342Z,7.53
2023-02-02T18:07:15.479Z,7.72
2023-02-02T18:09:43.742Z,12.20
2023-02-02T18:12:12.035Z,5.80
2023-02-02T18:14:41.737Z,6.38
2023-02-02T18:17:10.029Z,8.35
2023-02-02T18:19:39.415Z,8.15
2023-02-02T18:22:07.566Z,6.15
2023-02-02T18:24:35.721Z,8.52
2023-02-02T18:27:03.897Z,6.75
2023-02-02T18:29:31.953Z,9.00
2023-02-02T18:32:01.949Z,8.90
2023-02-02T18:34:31.095Z,8.07
2023-02-02T18:36:59.584Z,9.73
2023-02-02T18:39:27.722Z,8.48
2023-02-02T18:41:55.837Z,5.43
2023-02-02T18:44:24.551Z,11.43
2023-02-02T18:46:53.163Z,10.65
2023-02-02T18:49:23.094Z,6.22
2023-02-02T18:51:51.335Z,8.90
2023-02-02T18:54:19.449Z,11.20
2023-02-02T18:56:47.727Z,11.75
2023-02-02T18:59:16.268Z,7.88
2023-02-02T19:01:44.511Z,9.52
2023-02-02T19:04:12.819Z,6.97
2023-02-02T19:07:00.026Z,10.50
2023-02-02T19:09:28.111Z,9.15
2023-02-02T19:11:56.349Z,9.05
2023-02-02T19:14:28.592Z,8.43
2023-02-02T19:17:00.807Z,7.70
2023-02-02T19:19:32.232Z,8.40
2023-02-02T19:22:04.772Z,7.95
2023-02-02T19:24:37.951Z,12.50
2023-02-02T19:27:15.999Z,10.50
2023-02-02T19:29:44.083Z,10.75
2023-02-02T19:32:16.090Z,10.20
2023-02-02T19:34:44.266Z,6.95
2023-02-02T19:37:24.552Z,10.68
2023-02-02T19:39:56.807Z,8.18
2023-02-02T19:42:25.225Z,8.00
2023-02-02T19:44:54.573Z,6.60
2023-02-02T19:47:29.467Z,6.97
2023-02-02T19:49:57.679Z,6.20
2023-02-02T19:52:27.779Z,4.88
2023-02-02T19:54:55.986Z,6.40
2023-02-02T19:57:34.008Z,8.05
2023-02-02T20:00:12.511Z,7.50
2023-02-02T20:02:50.151Z,5.85
2023-02-02T20:05:22.701Z,6.80
2023-02-02T20:07:57.353Z,6.30
2023-02-02T20:10:27.903Z,4.82
2023-02-02T20:12:56.345Z,5.65
2023-02-02T20:15:34.507Z,8.05
2023-02-02T20:18:04.685Z,7.15
2023-02-02T20:20:39.278Z,7.72
2023-02-02T20:23:21.454Z,7.47
2023-02-02T20:25:49.536Z,7.45
2023-02-02T20:28:33.394Z,6.38
2023-02-02T20:31:03.587Z,8.35
2023-02-02T20:33:33.314Z,5.93
2023-02-02T20:36:02.663Z,7.50
2023-02-02T20:38:39.941Z,7.50
2023-02-02T20:41:08.151Z,9.00
2023-02-02T20:43:36.598Z,8.63
2023-02-02T20:46:04.973Z,7.28
2023-02-02T20:48:33.240Z,7.82
2023-02-02T20:51:01.319Z,11.07
2023-02-02T20:53:29.388Z,10.57
2023-02-02T20:56:01.726Z,8.65
2023-02-02T20:58:29.797Z,9.10
2023-02-02T21:00:57.886Z,9.65
2023-02-02T21:03:26.025Z,7.22
2023-02-02T21:05:54.208Z,8.43
2023-02-02T21:08:22.320Z,12.15
2023-02-02T21:10:50.409Z,7.85
2023-02-02T21:13:20.127Z,8.80
2023-02-02T21:15:48.445Z,10.07
2023-02-02T21:18:16.479Z,11.13
2023-02-02T21:20:44.583Z,13.93
2023-02-02T21:23:12.622Z,8.93
2023-02-02T21:25:40.616Z,7.57
2023-02-02T21:28:08.825Z,8.98
2023-02-02T21:30:38.361Z,10.48
2023-02-02T21:33:06.959Z,10.35
2023-02-02T21:35:35.611Z,9.40
2023-02-02T21:38:11.532Z,13.10
2023-02-02T21:40:40.958Z,8.70
2023-02-02T21:43:15.707Z,9.27
2023-02-02T21:45:49.437Z,18.77
2023-02-02T21:48:34.067Z,13.55
2023-02-02T21:51:19.991Z,11.48
2023-02-02T21:53:48.101Z,11.75
2023-02-02T21:56:27.528Z,10.68
2023-02-02T21:58:59.082Z,13.73
2023-02-02T22:01:36.963Z,9.23
2023-02-02T22:04:05.121Z,13.38
2023-02-02T22:06:36.043Z,11.82
2023-02-02T22:09:20.742Z,8.20
2023-02-02T22:11:52.550Z,14.38
2023-02-02T22:14:26.292Z,10.60
2023-02-02T22:16:59.163Z,15.32
2023-02-02T22:19:35.624Z,11.57
2023-02-02T22:22:17.135Z,10.52
2023-02-02T22:24:46.737Z,8.50
2023-02-02T22:27:23.568Z,9.70
2023-02-02T22:29:56.809Z,12.77
2023-02-02T22:32:26.345Z,10.88
2023-02-02T22:34:54.464Z,12.35
2023-02-02T22:37:22.712Z,13.60
2023-02-02T22:39:50.770Z,14.20
2023-02-02T22:42:18.854Z,9.55
2023-02-02T22:44:47.219Z,9.52
2023-02-02T22:47:15.286Z,9.32
2023-02-02T22:49:44.750Z,13.52
2023-02-02T22:52:12.867Z,11.38
2023-02-02T22:54:41.020Z,14.50
2023-02-02T22:57:09.079Z,10.20
2023-02-02T22:59:37.253Z,13.60
2023-02-02T23:02:05.481Z,13.85
2023-02-02T23:04:33.663Z,10.88
2023-02-02T23:07:03.133Z,12.35
2023-02-02T23:09:31.191Z,12.68
2023-02-02T23:11:59.555Z,10.32
2023-02-02T23:14:27.751Z,11.43
2023-02-02T23:16:55.799Z,12.40
2023-02-02T23:19:24.854Z,13.13
2023-02-02T23:21:52.905Z,10.25
2023-02-02T23:24:22.493Z,12.15
2023-02-02T23:26:50.859Z,13.20
2023-02-02T23:29:19.343Z,12.98
2023-02-02T23:31:47.540Z,11.93
2023-02-02T23:34:15.705Z,12.77
2023-02-02T23:36:43.845Z,12.93
2023-02-02T23:39:11.950Z,16.30
2023-02-02T23:41:41.478Z,11.25
2023-02-02T23:44:09.599Z,12.95
2023-02-02T23:46:38.414Z,14.20
2023-02-02T23:49:07.129Z,12.95
2023-02-02T23:51:35.643Z,13.18
2023-02-02T23:54:03.926Z,10.90
2023-02-02T23:56:32.049Z,12.63
2023-02-02T23:59:01.592Z,11.13
